createdAt,value
2019-03-01T00:01:47.998Z,33.00
2019-03-01T00:04:54.533Z,37.53
2019-03-01T00:08:06.326Z,36.27
2019-03-01T00:11:24.765Z,34.10
2019-03-01T00:14:43.281Z,34.23
2019-03-01T00:17:55.654Z,35.03
2019-03-01T00:21:17.587Z,38.77
2019-03-01T00:24:35.909Z,41.23
2019-03-01T00:27:57.347Z,37.33
2019-03-01T00:31:06.526Z,36.27
2019-03-01T00:34:24.298Z,40.30
2019-03-01T00:37:45.922Z,34.00
2019-03-01T00:41:18.363Z,41.43
2019-03-01T00:44:43.363Z,39.60
2019-03-01T00:47:46.820Z,38.67
2019-03-01T00:50:50.345Z,38.87
2019-03-01T00:53:53.794Z,35.03
2019-03-01T00:56:57.291Z,42.00
2019-03-01T01:00:00.758Z,34.87
2019-03-01T01:03:04.426Z,36.97
2019-03-01T01:06:07.883Z,39.13
2019-03-01T01:09:11.349Z,38.83
2019-03-01T01:12:14.892Z,36.43
2019-03-01T01:15:18.410Z,37.10
2019-03-01T01:18:21.877Z,36.17
2019-03-01T01:21:25.398Z,33.97
2019-03-01T01:24:28.865Z,38.47
2019-03-01T01:27:32.331Z,35.80
2019-03-01T01:30:35.790Z,33.13
2019-03-01T01:33:39.262Z,32.20
2019-03-01T01:36:42.701Z,31.33
2019-03-01T01:39:46.165Z,35.30
2019-03-01T01:42:49.627Z,33.93
2019-03-01T01:45:53.094Z,32.60
2019-03-01T01:48:56.544Z,31.97
2019-03-01T01:52:00.010Z,31.30
2019-03-01T01:55:04.333Z,30.00
2019-03-01T01:58:07.789Z,27.70
2019-03-01T02:01:11.322Z,30.23
2019-03-01T02:04:14.775Z,27.33
2019-03-01T02:07:18.261Z,28.77
2019-03-01T02:10:22.035Z,27.87
2019-03-01T02:13:25.477Z,22.17
2019-03-01T02:16:28.945Z,25.40
2019-03-01T02:19:32.406Z,22.47
2019-03-01T02:22:35.840Z,27.07
2019-03-01T02:25:39.317Z,24.63
2019-03-01T02:28:42.756Z,23.33
2019-03-01T02:31:49.973Z,25.07
2019-03-01T02:34:53.426Z,25.87
2019-03-01T02:37:56.885Z,23.77
2019-03-01T02:41:00.349Z,22.60
2019-03-01T02:44:03.897Z,22.83
2019-03-01T02:47:07.356Z,22.20
2019-03-01T02:50:13.033Z,23.00
2019-03-01T02:53:16.468Z,21.90
2019-03-01T02:56:19.924Z,22.17
2019-03-01T02:59:23.385Z,19.60
2019-03-01T03:02:26.850Z,20.70
2019-03-01T03:05:30.329Z,22.27
2019-03-01T03:08:33.834Z,18.23
2019-03-01T03:11:37.290Z,17.83
2019-03-01T03:14:40.765Z,16.00
2019-03-01T03:17:44.337Z,18.60
2019-03-01T03:20:47.814Z,18.07
2019-03-01T03:23:51.269Z,19.60
2019-03-01T03:26:54.791Z,18.77
2019-03-01T03:29:58.246Z,17.60
2019-03-01T03:33:01.721Z,18.33
2019-03-01T03:36:05.268Z,18.93
2019-03-01T03:39:11.614Z,18.60
2019-03-01T03:42:15.105Z,19.50
2019-03-01T03:45:19.246Z,19.57
2019-03-01T03:48:22.730Z,18.97
2019-03-01T03:51:26.218Z,19.00
2019-03-01T03:54:29.756Z,19.83
2019-03-01T03:57:33.215Z,23.30
2019-03-01T04:00:36.698Z,21.60
2019-03-01T04:03:40.222Z,23.47
2019-03-01T04:06:43.666Z,20.03
2019-03-01T04:09:47.157Z,20.73
2019-03-01T04:12:50.626Z,20.60
2019-03-01T04:15:54.063Z,22.30
2019-03-01T04:18:57.529Z,18.73
2019-03-01T04:22:00.989Z,21.60
2019-03-01T04:25:04.700Z,19.97
2019-03-01T04:28:08.159Z,20.77
2019-03-01T04:31:11.617Z,20.73
2019-03-01T04:34:15.065Z,21.90
2019-03-01T04:37:18.528Z,18.73
2019-03-01T04:40:21.990Z,21.63
2019-03-01T04:43:25.434Z,23.37
2019-03-01T04:46:28.904Z,21.23
2019-03-01T04:49:32.401Z,19.30
2019-03-01T04:52:36.343Z,25.30
2019-03-01T04:55:39.786Z,21.50
2019-03-01T04:58:43.245Z,22.50
2019-03-01T05:01:46.707Z,23.10
2019-03-01T05:04:50.226Z,19.77
2019-03-01T05:07:53.685Z,21.20
2019-03-01T05:10:57.154Z,22.13
2019-03-01T05:14:00.589Z,20.87
2019-03-01T05:17:04.051Z,23.30
2019-03-01T05:20:07.976Z,20.37
2019-03-01T05:23:11.459Z,22.40
2019-03-01T05:26:14.910Z,23.50
2019-03-01T05:29:18.374Z,21.10
2019-03-01T05:32:21.833Z,22.80
2019-03-01T05:35:25.290Z,22.13
2019-03-01T05:38:28.753Z,26.60
2019-03-01T05:41:32.214Z,23.77
2019-03-01T05:44:35.683Z,22.23
2019-03-01T05:47:39.153Z,22.10
2019-03-01T05:50:42.673Z,20.07
2019-03-01T05:53:46.142Z,23.17
2019-03-01T05:56:49.629Z,21.97
2019-03-01T05:59:53.134Z,24.97
2019-03-01T06:03:02.441Z,24.83
2019-03-01T06:06:05.877Z,21.80
2019-03-01T06:09:21.186Z,21.30
2019-03-01T06:12:45.877Z,22.47
2019-03-01T06:15:55.366Z,23.13
2019-03-01T06:19:07.555Z,26.50
2019-03-01T06:22:26.273Z,23.93
2019-03-01T06:25:38.518Z,28.03
2019-03-01T06:28:45.072Z,27.53
2019-03-01T06:32:00.338Z,24.77
2019-03-01T06:35:29.265Z,28.60
2019-03-01T06:39:13.719Z,26.67
2019-03-01T06:42:34.757Z,25.53
2019-03-01T06:45:43.977Z,28.37
2019-03-01T06:48:49.081Z,27.87
2019-03-01T06:51:52.546Z,26.97
2019-03-01T06:54:56.013Z,27.87
2019-03-01T06:57:59.471Z,28.60
2019-03-01T07:01:04.578Z,28.10
2019-03-01T07:04:09.655Z,28.00
2019-03-01T07:07:13.118Z,30.13
2019-03-01T07:10:16.642Z,27.63
2019-03-01T07:13:20.105Z,26.13
2019-03-01T07:16:23.550Z,26.40
2019-03-01T07:19:27.010Z,26.87
2019-03-01T07:22:30.484Z,24.40
2019-03-01T07:25:34.013Z,24.50
2019-03-01T07:28:37.458Z,23.53
2019-03-01T07:31:40.926Z,24.97
2019-03-01T07:34:44.390Z,25.97
2019-03-01T07:37:47.849Z,28.80
2019-03-01T07:40:52.285Z,27.00
2019-03-01T07:43:55.734Z,28.20
2019-03-01T07:46:59.185Z,31.73
2019-03-01T07:50:02.914Z,24.03
2019-03-01T07:53:06.373Z,24.17
2019-03-01T07:56:09.863Z,26.43
2019-03-01T07:59:13.315Z,26.50
2019-03-01T08:02:16.775Z,24.53
2019-03-01T08:05:35.598Z,23.57
2019-03-01T08:08:38.966Z,24.17
2019-03-01T08:11:43.030Z,24.67
2019-03-01T08:14:46.470Z,22.10
2019-03-01T08:17:49.922Z,21.83
2019-03-01T08:20:53.434Z,22.73
2019-03-01T08:23:56.931Z,19.03
2019-03-01T08:27:00.374Z,18.97
2019-03-01T08:30:06.951Z,23.37
2019-03-01T08:33:11.170Z,22.33
2019-03-01T08:36:14.631Z,20.00
2019-03-01T08:39:18.077Z,19.03
2019-03-01T08:42:21.562Z,21.73
2019-03-01T08:45:25.014Z,18.57
2019-03-01T08:48:30.554Z,17.83
2019-03-01T08:51:34.551Z,21.53
2019-03-01T08:54:38.009Z,18.63
2019-03-01T08:57:44.590Z,19.10
2019-03-01T09:00:48.335Z,18.83
2019-03-01T09:04:09.456Z,19.17
2019-03-01T09:07:12.957Z,19.43
2019-03-01T09:10:17.600Z,18.37
2019-03-01T09:13:21.033Z,18.03
2019-03-01T09:16:24.499Z,35.90
2019-03-01T09:19:27.972Z,34.60
2019-03-01T09:22:33.655Z,19.43
2019-03-01T09:25:36.690Z,18.70
2019-03-01T09:28:40.131Z,20.03
2019-03-01T09:31:43.597Z,18.17
2019-03-01T09:34:48.681Z,19.40
2019-03-01T09:37:52.209Z,20.10
2019-03-01T09:40:57.372Z,21.00
2019-03-01T09:44:03.023Z,22.30
2019-03-01T09:47:06.057Z,20.10
2019-03-01T09:50:11.341Z,19.23
2019-03-01T09:53:14.818Z,21.43
2019-03-01T09:56:18.254Z,18.47
2019-03-01T09:59:21.713Z,17.73
2019-03-01T10:02:25.249Z,17.83
2019-03-01T10:05:28.730Z,20.30
2019-03-01T10:08:45.141Z,20.50
2019-03-01T10:11:48.598Z,19.90
2019-03-01T10:14:52.042Z,18.10
2019-03-01T10:17:55.510Z,19.47
2019-03-01T10:20:58.953Z,18.07
2019-03-01T10:24:02.425Z,22.33
2019-03-01T10:27:05.897Z,19.63
2019-03-01T10:30:17.450Z,21.67
2019-03-01T10:33:20.906Z,21.67
2019-03-01T10:36:24.386Z,21.67
2019-03-01T10:39:27.905Z,18.47
2019-03-01T10:42:31.385Z,20.20
2019-03-01T10:45:34.830Z,22.80
2019-03-01T10:48:38.290Z,20.23
2019-03-01T10:51:41.759Z,19.20
2019-03-01T10:54:45.208Z,19.90
2019-03-01T10:57:49.046Z,18.97
2019-03-01T11:00:52.542Z,18.13
2019-03-01T11:03:56.002Z,20.60
2019-03-01T11:06:59.462Z,19.83
2019-03-01T11:10:04.162Z,21.80
2019-03-01T11:13:13.069Z,19.97
2019-03-01T11:16:16.585Z,18.73
2019-03-01T11:19:20.090Z,19.40
2019-03-01T11:22:23.627Z,21.07
2019-03-01T11:25:27.104Z,17.70
2019-03-01T11:28:30.561Z,19.27
2019-03-01T11:31:34.037Z,18.83
2019-03-01T11:34:37.482Z,21.37
2019-03-01T11:37:41.120Z,22.90
2019-03-01T11:40:44.581Z,20.30
2019-03-01T11:43:48.059Z,20.93
2019-03-01T11:46:51.506Z,21.70
2019-03-01T11:49:54.978Z,19.83
2019-03-01T11:52:58.451Z,23.27
2019-03-01T11:56:01.911Z,19.83
2019-03-01T11:59:05.354Z,20.70
2019-03-01T12:02:08.829Z,22.90
2019-03-01T12:05:13.139Z,19.60
2019-03-01T12:08:16.601Z,21.90
2019-03-01T12:11:20.049Z,20.53
2019-03-01T12:14:26.720Z,21.73
2019-03-01T12:17:37.398Z,21.27
2019-03-01T12:20:41.047Z,22.70
2019-03-01T12:23:45.710Z,21.03
2019-03-01T12:26:49.563Z,27.10
2019-03-01T12:29:53.311Z,22.37
2019-03-01T12:32:56.994Z,21.43
2019-03-01T12:36:00.769Z,21.67
2019-03-01T12:39:19.303Z,22.30
2019-03-01T12:42:22.776Z,23.77
2019-03-01T12:45:26.218Z,22.07
2019-03-01T12:48:29.681Z,21.53
2019-03-01T12:51:33.134Z,23.50
2019-03-01T12:54:36.661Z,25.83
2019-03-01T12:57:40.109Z,25.13
2019-03-01T13:00:43.572Z,24.70
2019-03-01T13:03:47.026Z,24.80
2019-03-01T13:06:50.487Z,25.27
2019-03-01T13:09:53.941Z,23.47
2019-03-01T13:12:58.694Z,25.87
2019-03-01T13:16:03.394Z,27.93
2019-03-01T13:19:06.862Z,25.53
2019-03-01T13:22:10.306Z,27.77
2019-03-01T13:25:15.608Z,28.43
2019-03-01T13:28:19.117Z,23.90
2019-03-01T13:31:22.564Z,27.93
2019-03-01T13:34:26.746Z,27.77
2019-03-01T13:37:30.357Z,31.77
2019-03-01T13:40:33.831Z,29.77
2019-03-01T13:43:37.274Z,37.40
2019-03-01T13:46:40.746Z,35.83
2019-03-01T13:49:44.194Z,41.20
2019-03-01T13:52:47.674Z,44.60
2019-03-01T13:55:51.109Z,45.03
2019-03-01T13:58:54.594Z,42.87
2019-03-01T14:01:58.062Z,43.80
2019-03-01T14:05:01.541Z,41.87
2019-03-01T14:08:08.964Z,44.13
2019-03-01T14:11:10.346Z,50.13
2019-03-01T14:14:13.788Z,48.57
2019-03-01T14:17:17.269Z,49.27
2019-03-01T14:20:21.666Z,49.53
2019-03-01T14:23:25.947Z,54.33
2019-03-01T14:26:29.553Z,54.73
2019-03-01T14:29:34.735Z,48.13
2019-03-01T14:32:38.353Z,56.87
2019-03-01T14:35:41.821Z,52.77
2019-03-01T14:38:45.257Z,52.70
2019-03-01T14:41:48.733Z,49.20
2019-03-01T14:45:01.986Z,50.83
2019-03-01T14:48:08.573Z,58.33
2019-03-01T14:51:11.738Z,59.97
2019-03-01T14:54:15.361Z,56.27
2019-03-01T14:57:21.642Z,54.57
2019-03-01T15:00:55.576Z,52.60
2019-03-01T15:03:59.220Z,51.80
2019-03-01T15:07:02.755Z,55.60
2019-03-01T15:10:09.302Z,61.30
2019-03-01T15:13:12.856Z,58.07
2019-03-01T15:16:16.378Z,51.93
2019-03-01T15:19:19.847Z,54.70
2019-03-01T15:22:23.280Z,58.27
2019-03-01T15:25:26.763Z,59.50
2019-03-01T15:28:45.127Z,57.90
2019-03-01T15:31:51.184Z,59.50
2019-03-01T15:34:53.769Z,56.63
2019-03-01T15:37:57.210Z,59.50
2019-03-01T15:41:03.637Z,60.57
2019-03-01T15:44:05.846Z,56.53
2019-03-01T15:47:09.314Z,63.40
2019-03-01T15:50:14.218Z,60.43
2019-03-01T15:53:17.685Z,56.73
2019-03-01T15:56:22.135Z,54.57
2019-03-01T15:59:25.670Z,52.77
2019-03-01T16:02:29.137Z,54.03
2019-03-01T16:05:34.152Z,51.43
2019-03-01T16:08:37.809Z,54.83
2019-03-01T16:11:41.273Z,52.43
2019-03-01T16:14:44.714Z,54.80
2019-03-01T16:17:48.185Z,47.93
2019-03-01T16:20:51.632Z,53.47
2019-03-01T16:23:59.071Z,54.00
2019-03-01T16:27:02.505Z,49.63
2019-03-01T16:30:09.281Z,53.10
2019-03-01T16:33:12.724Z,47.40
2019-03-01T16:36:17.833Z,50.03
2019-03-01T16:39:23.826Z,51.20
2019-03-01T16:42:26.466Z,44.97
2019-03-01T16:45:29.925Z,52.83
2019-03-01T16:48:33.364Z,46.43
2019-03-01T16:51:36.829Z,47.13
2019-03-01T16:54:40.272Z,44.87
2019-03-01T16:57:43.793Z,48.87
2019-03-01T17:00:47.233Z,49.67
2019-03-01T17:03:52.610Z,52.13
2019-03-01T17:06:55.865Z,51.60
2019-03-01T17:09:59.334Z,45.17
2019-03-01T17:13:02.782Z,42.83
2019-03-01T17:16:06.270Z,43.30
2019-03-01T17:19:09.778Z,46.77
2019-03-01T17:22:13.249Z,43.67
2019-03-01T17:25:23.494Z,44.00
2019-03-01T17:28:26.912Z,40.80
2019-03-01T17:31:30.393Z,45.43
2019-03-01T17:34:33.829Z,45.07
2019-03-01T17:37:37.333Z,46.90
2019-03-01T17:40:40.782Z,49.07
2019-03-01T17:43:44.250Z,43.80
2019-03-01T17:46:47.686Z,44.43
2019-03-01T17:49:51.167Z,46.57
2019-03-01T17:52:54.607Z,47.17
2019-03-01T17:55:58.091Z,43.50
2019-03-01T17:59:01.530Z,36.13
2019-03-01T18:02:05.005Z,40.63
2019-03-01T18:05:10.889Z,40.03
2019-03-01T18:08:14.433Z,40.20
2019-03-01T18:11:17.883Z,36.80
2019-03-01T18:14:21.361Z,37.93
2019-03-01T18:17:24.798Z,35.10
2019-03-01T18:20:28.345Z,35.67
2019-03-01T18:23:34.233Z,34.33
2019-03-01T18:26:39.822Z,30.27
2019-03-01T18:29:42.644Z,31.87
2019-03-01T18:32:46.920Z,37.27
2019-03-01T18:35:52.518Z,32.90
2019-03-01T18:38:55.546Z,32.50
2019-03-01T18:41:59.327Z,30.50
2019-03-01T18:45:15.720Z,33.13
2019-03-01T18:48:19.183Z,34.87
2019-03-01T18:51:22.625Z,30.27
2019-03-01T18:54:26.119Z,33.57
2019-03-01T18:57:29.554Z,38.67
2019-03-01T19:00:44.469Z,39.40
2019-03-01T19:03:47.936Z,35.67
2019-03-01T19:06:52.415Z,36.40
2019-03-01T19:09:56.142Z,38.33
2019-03-01T19:12:59.613Z,39.20
2019-03-01T19:16:03.074Z,33.07
2019-03-01T19:19:06.586Z,31.90
2019-03-01T19:22:10.057Z,35.50
2019-03-01T19:25:15.271Z,34.17
2019-03-01T19:28:18.790Z,33.60
2019-03-01T19:31:24.536Z,31.27
2019-03-01T19:34:27.430Z,30.83
2019-03-01T19:37:30.865Z,32.13
2019-03-01T19:40:34.337Z,30.60
2019-03-01T19:43:37.779Z,31.63
2019-03-01T19:46:41.255Z,29.00
2019-03-01T19:49:45.275Z,32.40
2019-03-01T19:52:50.693Z,27.97
2019-03-01T19:55:54.226Z,31.30
2019-03-01T19:58:59.326Z,31.27
2019-03-01T20:02:03.019Z,31.00
2019-03-01T20:05:09.702Z,27.33
2019-03-01T20:08:13.137Z,28.10
2019-03-01T20:11:16.621Z,27.17
2019-03-01T20:14:20.100Z,27.07
2019-03-01T20:17:26.478Z,25.63
2019-03-01T20:20:33.520Z,28.57
2019-03-01T20:23:35.399Z,27.73
2019-03-01T20:26:38.878Z,26.77
2019-03-01T20:29:42.314Z,30.00
2019-03-01T20:32:47.481Z,27.80
2019-03-01T20:35:51.093Z,26.33
2019-03-01T20:38:54.557Z,26.83
2019-03-01T20:41:58.002Z,27.90
2019-03-01T20:45:01.486Z,28.90
2019-03-01T20:48:05.165Z,26.47
2019-03-01T20:51:08.630Z,27.67
2019-03-01T20:54:12.075Z,28.67
2019-03-01T20:57:15.547Z,26.67
2019-03-01T21:00:27.346Z,26.40
2019-03-01T21:03:31.877Z,23.77
2019-03-01T21:06:37.394Z,26.00
2019-03-01T21:09:41.237Z,26.27
2019-03-01T21:12:44.826Z,26.23
2019-03-01T21:15:48.270Z,26.07
2019-03-01T21:18:51.731Z,28.50
2019-03-01T21:21:55.174Z,25.63
2019-03-01T21:25:03.160Z,24.10
2019-03-01T21:28:06.818Z,21.43
2019-03-01T21:31:10.281Z,24.00
2019-03-01T21:34:14.947Z,27.97
2019-03-01T21:37:18.593Z,23.53
2019-03-01T21:40:22.101Z,25.90
2019-03-01T21:43:25.566Z,26.63
2019-03-01T21:46:30.480Z,23.13
2019-03-01T21:49:34.185Z,23.67
2019-03-01T21:52:37.651Z,23.60
2019-03-01T21:55:41.189Z,25.13
2019-03-01T21:58:44.673Z,21.70
2019-03-01T22:01:48.113Z,22.73
2019-03-01T22:04:51.578Z,20.77
2019-03-01T22:07:55.019Z,19.40
2019-03-01T22:10:58.489Z,17.27
2019-03-01T22:14:01.952Z,22.73
2019-03-01T22:17:05.402Z,20.87
2019-03-01T22:20:10.509Z,21.27
2019-03-01T22:23:15.653Z,24.07
2019-03-01T22:26:19.162Z,23.80
2019-03-01T22:29:22.613Z,24.50
2019-03-01T22:32:26.080Z,25.07
2019-03-01T22:35:29.518Z,22.73
2019-03-01T22:38:33.154Z,24.37
2019-03-01T22:41:39.336Z,22.57
2019-03-01T22:44:43.717Z,20.50
2019-03-01T22:47:46.990Z,20.00
2019-03-01T22:50:50.454Z,19.63
2019-03-01T22:53:53.918Z,22.50
2019-03-01T22:56:57.365Z,20.57
2019-03-01T23:00:00.826Z,22.17
2019-03-01T23:03:04.526Z,20.47
2019-03-01T23:06:07.962Z,19.00
2019-03-01T23:09:13.082Z,21.63
2019-03-01T23:12:16.523Z,18.13
2019-03-01T23:15:19.984Z,20.07
2019-03-01T23:18:23.434Z,20.07
2019-03-01T23:21:26.894Z,20.93
2019-03-01T23:24:31.689Z,21.87
2019-03-01T23:27:35.531Z,19.60
2019-03-01T23:30:38.969Z,18.47
2019-03-01T23:33:42.443Z,21.83
2019-03-01T23:36:46.279Z,22.20
2019-03-01T23:39:49.745Z,19.67
2019-03-01T23:42:53.400Z,21.70
2019-03-01T23:45:58.375Z,20.20
2019-03-01T23:49:06.264Z,21.40
2019-03-01T23:52:07.009Z,21.07
2019-03-01T23:55:10.553Z,25.70
2019-03-01T23:58:15.879Z,21.67
